Time;durP1;ratioP1;P1;durP2;ratioP2;P2;SDS_P1;SDS_P2;PMS_P1;PMS_P2;Temp;Humidity;BMP_temperature;BMP_pressure;BME280_temperature;BME280_humidity;BME280_pressure;Samples;Min_cycle;Max_cycle;Signal;HPM_P1;HPM_P2
2023/07/09 00:02:13;;;;;;;3.03;1.98;;;;;;;;;;5090514;28;19904;-60
2023/07/09 00:04:39;;;;;;;3.70;2.53;;;;;;;;;;5092620;28;20032;-60
2023/07/09 00:07:05;;;;;;;3.72;2.42;;;;;;;;;;5092702;28;20473;-60
2023/07/09 00:09:31;;;;;;;6.25;2.10;;;;;;;;;;5092164;28;20036;-60
2023/07/09 00:11:58;;;;;;;3.90;2.50;;;;;;;;;;5091964;28;20024;-60
2023/07/09 00:14:24;;;;;;;4.95;3.00;;;;;;;;;;5092599;28;20024;-60
2023/07/09 00:16:50;;;;;;;4.03;2.60;;;;;;;;;;5092258;28;20040;-60
2023/07/09 00:19:20;;;;;;;4.22;2.63;;;;;;;;;;5092409;28;20063;-60
2023/07/09 00:21:49;;;;;;;5.53;2.45;;;;;;;;;;5091752;28;20038;-60
2023/07/09 00:24:15;;;;;;;3.88;2.45;;;;;;;;;;5092585;28;20046;-60
2023/07/09 00:26:41;;;;;;;4.68;2.50;;;;;;;;;;5092618;28;20422;-60
2023/07/09 00:29:13;;;;;;;3.65;2.45;;;;;;;;;;5092555;28;20024;-60
2023/07/09 00:31:40;;;;;;;2.83;1.95;;;;;;;;;;5090311;28;20020;-60
2023/07/09 00:34:13;;;;;;;3.95;2.42;;;;;;;;;;5092440;28;20032;-60
2023/07/09 00:36:40;;;;;;;6.40;2.85;;;;;;;;;;5092197;28;20496;-60
2023/07/09 00:39:15;;;;;;;3.75;2.30;;;;;;;;;;5092234;28;20058;-60
2023/07/09 00:41:41;;;;;;;3.17;2.30;;;;;;;;;;5091793;28;20423;-60
2023/07/09 00:44:30;;;;;;;3.00;1.95;;;;;;;;;;5092360;28;20082;-60
2023/07/09 00:46:57;;;;;;;4.13;2.45;;;;;;;;;;5091282;28;20024;-60
2023/07/09 00:49:44;;;;;;;3.88;2.20;;;;;;;;;;5092340;28;20449;-60
2023/07/09 00:52:21;;;;;;;4.78;2.75;;;;;;;;;;5091565;28;20024;-60
2023/07/09 00:54:47;;;;;;;3.67;2.28;;;;;;;;;;5092305;28;20030;-60
2023/07/09 00:57:18;;;;;;;5.90;2.53;;;;;;;;;;5091905;28;20028;-60
2023/07/09 00:59:53;;;;;;;2.85;2.20;;;;;;;;;;5092139;28;20028;-60
2023/07/09 01:02:23;;;;;;;3.95;2.40;;;;;;;;;;5090922;28;20032;-60
2023/07/09 01:04:49;;;;;;;3.55;2.10;;;;;;;;;;5092215;28;20428;-60
2023/07/09 01:07:17;;;;;;;3.97;2.63;;;;;;;;;;5091630;28;20420;-60
2023/07/09 01:09:42;;;;;;;5.22;2.15;;;;;;;;;;5091386;28;20024;-60
2023/07/09 01:12:09;;;;;;;3.85;2.60;;;;;;;;;;5090861;28;20028;-60
2023/07/09 01:14:36;;;;;;;3.78;2.50;;;;;;;;;;5091841;28;20028;-60
2023/07/09 01:17:04;;;;;;;5.13;2.53;;;;;;;;;;5091549;28;20539;-60
2023/07/09 01:19:31;;;;;;;6.22;2.33;;;;;;;;;;5092081;28;20024;-60
2023/07/09 01:22:04;;;;;;;3.97;2.38;;;;;;;;;;5089753;28;20032;-60
2023/07/09 01:24:48;;;;;;;3.60;2.53;;;;;;;;;;5092000;28;20052;-60
2023/07/09 01:27:14;;;;;;;4.32;2.03;;;;;;;;;;5091379;28;20032;-58
2023/07/09 01:29:42;;;;;;;3.72;2.10;;;;;;;;;;5092088;28;20043;-60
2023/07/09 01:32:08;;;;;;;3.63;2.50;;;;;;;;;;5089793;28;20111;-60
2023/07/09 01:34:34;;;;;;;3.10;1.88;;;;;;;;;;5091756;28;20020;-60
2023/07/09 01:37:00;;;;;;;4.70;3.10;;;;;;;;;;5091385;28;20035;-60
2023/07/09 01:39:28;;;;;;;4.20;2.42;;;;;;;;;;5091525;28;20024;-60
2023/07/09 01:41:54;;;;;;;6.68;3.10;;;;;;;;;;5090761;28;20485;-60
2023/07/09 01:44:20;;;;;;;5.20;2.95;;;;;;;;;;5091602;28;20032;-60
2023/07/09 01:46:46;;;;;;;4.97;3.22;;;;;;;;;;5091313;28;20017;-60
2023/07/09 01:49:12;;;;;;;11.02;2.90;;;;;;;;;;5091611;28;20098;-60
2023/07/09 01:51:39;;;;;;;3.70;2.47;;;;;;;;;;5090384;28;20027;-60
2023/07/09 01:54:05;;;;;;;12.10;2.72;;;;;;;;;;5091476;28;20032;-60
2023/07/09 01:56:31;;;;;;;5.80;2.13;;;;;;;;;;5091312;28;20039;-60
2023/07/09 01:59:01;;;;;;;4.07;2.92;;;;;;;;;;5093414;28;20400;-60
2023/07/09 02:01:30;;;;;;;3.53;2.80;;;;;;;;;;5094540;28;20024;-60
2023/07/09 02:03:56;;;;;;;3.95;2.55;;;;;;;;;;5095322;28;20416;-60
2023/07/09 02:06:24;;;;;;;3.55;2.60;;;;;;;;;;5094602;28;20099;-60
2023/07/09 02:08:50;;;;;;;4.32;3.17;;;;;;;;;;5094752;28;20433;-60
2023/07/09 02:11:16;;;;;;;3.60;2.45;;;;;;;;;;5094164;28;20089;-60
2023/07/09 02:13:42;;;;;;;4.25;2.85;;;;;;;;;;5095087;28;20423;-60
2023/07/09 02:16:11;;;;;;;5.95;3.17;;;;;;;;;;5094959;28;20020;-60
2023/07/09 02:18:37;;;;;;;4.68;2.70;;;;;;;;;;5095109;28;20020;-60
2023/07/09 02:21:03;;;;;;;4.50;2.80;;;;;;;;;;5093749;28;20076;-60
2023/07/09 02:23:29;;;;;;;4.13;2.92;;;;;;;;;;5094965;28;20024;-60
2023/07/09 02:25:55;;;;;;;5.60;3.08;;;;;;;;;;5094681;28;20023;-60
2023/07/09 02:28:21;;;;;;;5.03;3.40;;;;;;;;;;5094811;28;20385;-60
2023/07/09 02:30:47;;;;;;;4.22;2.88;;;;;;;;;;5093667;28;20029;-60
2023/07/09 02:33:13;;;;;;;3.20;2.40;;;;;;;;;;5092856;28;20021;-60
2023/07/09 02:35:42;;;;;;;5.05;3.08;;;;;;;;;;5094565;28;20020;-60
2023/07/09 02:38:08;;;;;;;4.28;2.90;;;;;;;;;;5094391;28;20522;-60
2023/07/09 02:40:34;;;;;;;4.80;3.15;;;;;;;;;;5093932;28;20039;-60
2023/07/09 02:43:00;;;;;;;3.35;2.80;;;;;;;;;;5094445;28;20020;-60
2023/07/09 02:45:26;;;;;;;3.38;2.08;;;;;;;;;;5094098;28;20027;-60
2023/07/09 02:47:52;;;;;;;3.42;2.53;;;;;;;;;;5094576;28;20050;-60
2023/07/09 02:50:18;;;;;;;4.18;3.70;;;;;;;;;;5093547;28;20032;-60
2023/07/09 02:52:44;;;;;;;3.85;2.25;;;;;;;;;;5094576;28;20374;-60
2023/07/09 02:55:10;;;;;;;4.68;3.03;;;;;;;;;;5094140;28;20115;-60
2023/07/09 02:57:36;;;;;;;3.17;2.53;;;;;;;;;;5094196;28;20107;-60
2023/07/09 03:00:05;;;;;;;4.93;2.85;;;;;;;;;;5094151;28;20434;-60
2023/07/09 03:02:31;;;;;;;4.05;2.55;;;;;;;;;;5093640;28;20024;-60
2023/07/09 03:04:56;;;;;;;5.35;3.10;;;;;;;;;;5094277;28;20110;-60
2023/07/09 03:07:22;;;;;;;5.07;3.17;;;;;;;;;;5093744;28;20027;-59
2023/07/09 03:09:48;;;;;;;4.47;2.85;;;;;;;;;;5092544;28;20020;-60
2023/07/09 03:12:14;;;;;;;3.65;2.63;;;;;;;;;;5092798;28;20032;-60
2023/07/09 03:14:40;;;;;;;4.68;3.08;;;;;;;;;;5093775;28;20070;-60
2023/07/09 03:17:06;;;;;;;3.75;2.50;;;;;;;;;;5093495;28;20183;-60
2023/07/09 03:19:32;;;;;;;5.57;2.65;;;;;;;;;;5094033;28;20025;-60
2023/07/09 03:21:58;;;;;;;4.60;2.53;;;;;;;;;;5093013;28;20023;-60
2023/07/09 03:24:24;;;;;;;3.72;2.90;;;;;;;;;;5093660;28;20236;-60
2023/07/09 03:26:50;;;;;;;3.72;2.63;;;;;;;;;;5093548;28;20024;-60
2023/07/09 03:29:16;;;;;;;3.60;2.67;;;;;;;;;;5093661;28;20356;-60
2023/07/09 03:31:43;;;;;;;4.90;2.75;;;;;;;;;;5090992;28;20120;-60
2023/07/09 03:34:08;;;;;;;4.53;3.20;;;;;;;;;;5093388;28;20028;-60
2023/07/09 03:36:37;;;;;;;3.85;2.65;;;;;;;;;;5093418;28;20535;-60
2023/07/09 03:39:03;;;;;;;3.70;2.72;;;;;;;;;;5093336;28;20099;-60
2023/07/09 03:41:29;;;;;;;4.53;2.97;;;;;;;;;;5092565;28;20115;-60
2023/07/09 03:43:55;;;;;;;3.45;2.50;;;;;;;;;;5093700;28;20485;-60
2023/07/09 03:46:21;;;;;;;3.45;2.72;;;;;;;;;;5093178;28;20056;-60
2023/07/09 03:48:47;;;;;;;4.07;3.03;;;;;;;;;;5093398;28;20028;-60
2023/07/09 03:51:13;;;;;;;3.50;2.58;;;;;;;;;;5092691;28;20035;-60
2023/07/09 03:53:39;;;;;;;5.20;2.83;;;;;;;;;;5092831;28;20062;-60
2023/07/09 03:56:05;;;;;;;5.53;2.92;;;;;;;;;;5092566;28;20080;-60
2023/07/09 03:58:31;;;;;;;5.05;2.75;;;;;;;;;;5093214;28;20355;-60
2023/07/09 04:00:57;;;;;;;4.13;2.75;;;;;;;;;;5092330;28;20103;-60
2023/07/09 04:03:23;;;;;;;4.72;2.75;;;;;;;;;;5093075;28;20076;-62
2023/07/09 04:05:49;;;;;;;4.00;2.95;;;;;;;;;;5092787;28;20095;-62
2023/07/09 04:08:15;;;;;;;4.57;2.97;;;;;;;;;;5092812;28;20024;-61
2023/07/09 04:10:41;;;;;;;4.05;2.92;;;;;;;;;;5091288;28;20481;-61
2023/07/09 04:13:07;;;;;;;4.50;2.95;;;;;;;;;;5092842;28;20060;-61
2023/07/09 04:15:33;;;;;;;3.67;2.90;;;;;;;;;;5092614;28;20031;-61
2023/07/09 04:17:59;;;;;;;3.20;2.80;;;;;;;;;;5092756;28;20020;-61
2023/07/09 04:20:25;;;;;;;4.07;3.00;;;;;;;;;;5091709;28;20047;-59
2023/07/09 04:22:51;;;;;;;3.53;2.42;;;;;;;;;;5092422;28;20024;-59
2023/07/09 04:25:18;;;;;;;3.65;2.83;;;;;;;;;;5091988;28;20111;-59
2023/07/09 04:27:43;;;;;;;4.60;2.97;;;;;;;;;;5092678;28;20134;-59
2023/07/09 04:30:14;;;;;;;3.67;2.88;;;;;;;;;;5091794;28;20024;-59
2023/07/09 04:32:43;;;;;;;5.47;3.33;;;;;;;;;;5091315;28;20032;-60
2023/07/09 04:35:11;;;;;;;4.30;3.08;;;;;;;;;;5092170;28;20107;-61
2023/07/09 04:37:36;;;;;;;3.20;2.70;;;;;;;;;;5091037;28;20025;-59
2023/07/09 04:40:06;;;;;;;3.50;3.00;;;;;;;;;;5092279;28;20040;-59
2023/07/09 04:42:32;;;;;;;6.00;3.43;;;;;;;;;;5091811;28;20065;-59
2023/07/09 04:44:58;;;;;;;5.80;3.30;;;;;;;;;;5092201;28;20124;-60
2023/07/09 04:47:24;;;;;;;3.55;2.95;;;;;;;;;;5091915;28;20088;-59
2023/07/09 04:49:50;;;;;;;6.72;3.22;;;;;;;;;;5092057;28;20020;-60
2023/07/09 04:52:16;;;;;;;5.38;3.05;;;;;;;;;;5091400;28;20069;-59
2023/07/09 04:54:44;;;;;;;3.85;2.97;;;;;;;;;;5092153;28;20028;-60
2023/07/09 04:57:10;;;;;;;4.30;2.90;;;;;;;;;;5091861;28;20035;-59
2023/07/09 04:59:36;;;;;;;4.93;3.08;;;;;;;;;;5092109;28;20457;-60
2023/07/09 05:02:02;;;;;;;4.57;3.28;;;;;;;;;;5091219;28;20031;-60
2023/07/09 05:04:28;;;;;;;4.32;3.17;;;;;;;;;;5091687;28;20032;-60
2023/07/09 05:06:54;;;;;;;5.55;2.95;;;;;;;;;;5091905;28;20462;-60
2023/07/09 05:09:20;;;;;;;4.65;3.03;;;;;;;;;;5091295;28;20470;-60
2023/07/09 05:11:46;;;;;;;4.18;2.83;;;;;;;;;;5090777;28;20027;-60
2023/07/09 05:14:12;;;;;;;3.85;2.88;;;;;;;;;;5091550;28;20028;-60
2023/07/09 05:16:38;;;;;;;7.70;3.35;;;;;;;;;;5091490;28;20481;-60
2023/07/09 05:19:04;;;;;;;4.60;3.05;;;;;;;;;;5091844;28;20518;-60
2023/07/09 05:21:30;;;;;;;5.20;3.28;;;;;;;;;;5090576;28;20054;-60
2023/07/09 05:23:56;;;;;;;8.65;4.00;;;;;;;;;;5091764;28;20024;-60
2023/07/09 05:26:22;;;;;;;4.47;3.20;;;;;;;;;;5091382;28;20016;-60
2023/07/09 05:28:48;;;;;;;3.15;2.85;;;;;;;;;;5091723;28;20017;-60
2023/07/09 05:31:14;;;;;;;4.07;3.28;;;;;;;;;;5089396;28;20107;-60
2023/07/09 05:33:40;;;;;;;4.57;3.15;;;;;;;;;;5093001;28;20028;-60
2023/07/09 05:36:07;;;;;;;4.88;3.47;;;;;;;;;;5095461;28;20024;-61
2023/07/09 05:38:33;;;;;;;5.50;2.88;;;;;;;;;;5095766;28;20032;-60
2023/07/09 05:41:00;;;;;;;3.58;2.85;;;;;;;;;;5094777;28;20028;-60
2023/07/09 05:43:26;;;;;;;7.22;3.58;;;;;;;;;;5095519;28;20119;-60
2023/07/09 05:45:52;;;;;;;5.28;3.53;;;;;;;;;;5095582;28;20477;-60
2023/07/09 05:48:18;;;;;;;4.82;3.22;;;;;;;;;;5095949;28;20108;-60
2023/07/09 05:50:44;;;;;;;4.55;3.08;;;;;;;;;;5094919;28;20042;-60
2023/07/09 05:53:10;;;;;;;4.40;3.22;;;;;;;;;;5095491;28;20027;-60
2023/07/09 05:55:36;;;;;;;4.63;3.50;;;;;;;;;;5095044;28;20518;-60
2023/07/09 05:58:03;;;;;;;5.68;3.47;;;;;;;;;;5095054;28;20016;-60
2023/07/09 06:00:29;;;;;;;4.35;3.45;;;;;;;;;;5094412;28;20032;-60
2023/07/09 06:02:55;;;;;;;10.85;3.72;;;;;;;;;;5095285;28;20527;-60
2023/07/09 06:05:21;;;;;;;4.03;2.65;;;;;;;;;;5093728;28;20028;-60
2023/07/09 06:07:47;;;;;;;4.03;3.15;;;;;;;;;;5095308;28;20020;-60
2023/07/09 06:10:13;;;;;;;8.85;3.08;;;;;;;;;;5093662;28;20020;-60
2023/07/09 06:12:40;;;;;;;6.47;3.40;;;;;;;;;;5094844;28;20028;-60
2023/07/09 06:15:06;;;;;;;3.95;3.00;;;;;;;;;;5095171;28;20038;-60
2023/07/09 06:17:32;;;;;;;6.28;3.65;;;;;;;;;;5094916;28;20415;-60
2023/07/09 06:19:58;;;;;;;3.97;2.78;;;;;;;;;;5095002;28;20024;-60
2023/07/09 06:22:24;;;;;;;3.78;3.10;;;;;;;;;;5094053;28;20059;-60
2023/07/09 06:24:50;;;;;;;4.53;3.47;;;;;;;;;;5094979;28;20056;-60
2023/07/09 06:27:15;;;;;;;4.15;3.28;;;;;;;;;;5094205;28;20027;-60
2023/07/09 06:29:41;;;;;;;4.57;3.22;;;;;;;;;;5095066;28;20031;-60
2023/07/09 06:32:07;;;;;;;5.63;4.03;;;;;;;;;;5090814;28;20077;-60
2023/07/09 06:34:33;;;;;;;5.53;3.38;;;;;;;;;;5094146;28;20031;-60
2023/07/09 06:36:59;;;;;;;4.18;3.30;;;;;;;;;;5094240;28;20043;-60
2023/07/09 06:39:25;;;;;;;5.05;3.60;;;;;;;;;;5094311;28;20108;-60
2023/07/09 06:41:51;;;;;;;3.67;3.10;;;;;;;;;;5094123;28;20119;-60
2023/07/09 06:44:17;;;;;;;3.50;2.80;;;;;;;;;;5093754;28;20035;-60
2023/07/09 06:46:45;;;;;;;4.07;3.30;;;;;;;;;;5093579;28;20020;-60
2023/07/09 06:49:11;;;;;;;3.70;3.08;;;;;;;;;;5093077;28;20059;-60
2023/07/09 06:51:37;;;;;;;4.93;3.50;;;;;;;;;;5093377;28;20056;-60
2023/07/09 06:54:04;;;;;;;4.85;3.83;;;;;;;;;;5094354;28;20027;-60
2023/07/09 06:56:31;;;;;;;4.72;3.10;;;;;;;;;;5094033;28;20067;-60
2023/07/09 06:58:57;;;;;;;4.63;3.25;;;;;;;;;;5094356;28;20355;-60
2023/07/09 07:01:23;;;;;;;4.57;3.40;;;;;;;;;;5093225;28;20021;-60
2023/07/09 07:03:49;;;;;;;3.95;3.25;;;;;;;;;;5093985;28;20031;-60
2023/07/09 07:06:16;;;;;;;4.47;3.17;;;;;;;;;;5093618;28;20103;-60
2023/07/09 07:08:42;;;;;;;3.80;2.80;;;;;;;;;;5093518;28;20533;-60
2023/07/09 07:11:08;;;;;;;5.05;3.03;;;;;;;;;;5092990;28;20107;-60
2023/07/09 07:13:35;;;;;;;4.97;3.17;;;;;;;;;;5093773;28;20035;-60
2023/07/09 07:16:02;;;;;;;5.25;3.58;;;;;;;;;;5093722;28;20055;-60
2023/07/09 07:18:28;;;;;;;3.70;2.90;;;;;;;;;;5093855;28;20035;-60
2023/07/09 07:20:54;;;;;;;4.68;3.08;;;;;;;;;;5092498;28;20027;-60
2023/07/09 07:23:20;;;;;;;4.95;3.95;;;;;;;;;;5093636;28;20028;-60
2023/07/09 07:25:46;;;;;;;5.72;3.85;;;;;;;;;;5093502;28;20012;-60
2023/07/09 07:28:12;;;;;;;4.55;3.55;;;;;;;;;;5093554;28;20080;-60
2023/07/09 07:30:38;;;;;;;4.95;3.50;;;;;;;;;;5091299;28;20086;-60
2023/07/09 07:33:04;;;;;;;4.60;3.20;;;;;;;;;;5089712;28;20032;-60
2023/07/09 07:35:30;;;;;;;6.15;3.15;;;;;;;;;;5093483;28;20024;-60
2023/07/09 07:37:56;;;;;;;5.35;3.33;;;;;;;;;;5093544;28;20023;-60
2023/07/09 07:40:22;;;;;;;5.97;3.55;;;;;;;;;;5092412;28;20036;-60
2023/07/09 07:42:48;;;;;;;5.40;2.67;;;;;;;;;;5093339;28;20104;-60
2023/07/09 07:45:15;;;;;;;5.05;3.53;;;;;;;;;;5092803;28;20056;-60
2023/07/09 07:47:42;;;;;;;3.83;3.10;;;;;;;;;;5093121;28;20521;-60
2023/07/09 07:50:08;;;;;;;4.90;3.20;;;;;;;;;;5093024;28;20035;-61
2023/07/09 07:52:37;;;;;;;4.82;3.47;;;;;;;;;;5093243;28;20024;-61
2023/07/09 07:55:03;;;;;;;4.63;3.25;;;;;;;;;;5093168;28;20047;-60
2023/07/09 07:57:29;;;;;;;4.50;2.72;;;;;;;;;;5092414;28;20024;-61
2023/07/09 07:59:55;;;;;;;5.55;2.95;;;;;;;;;;5093214;28;20074;-61
2023/07/09 08:02:21;;;;;;;5.50;3.33;;;;;;;;;;5091819;28;20515;-61
2023/07/09 08:04:47;;;;;;;5.72;2.92;;;;;;;;;;5092836;28;20111;-62
2023/07/09 08:07:13;;;;;;;4.57;3.38;;;;;;;;;;5091865;28;20097;-60
2023/07/09 08:09:39;;;;;;;3.67;2.83;;;;;;;;;;5092179;28;20125;-60
2023/07/09 08:12:11;;;;;;;4.30;3.00;;;;;;;;;;5091749;28;20527;-60
2023/07/09 08:14:37;;;;;;;4.68;3.38;;;;;;;;;;5092436;28;20020;-61
2023/07/09 08:17:03;;;;;;;4.90;2.95;;;;;;;;;;5092186;28;20027;-60
2023/07/09 08:19:29;;;;;;;3.88;3.13;;;;;;;;;;5092510;28;20024;-60
2023/07/09 08:21:55;;;;;;;4.20;3.00;;;;;;;;;;5091631;28;20103;-60
2023/07/09 08:24:21;;;;;;;4.75;3.40;;;;;;;;;;5092777;28;20035;-61
2023/07/09 08:26:47;;;;;;;5.43;2.78;;;;;;;;;;5092026;28;20028;-60
2023/07/09 08:29:13;;;;;;;4.18;3.08;;;;;;;;;;5092329;28;20030;-60
2023/07/09 08:31:39;;;;;;;4.10;2.92;;;;;;;;;;5088547;28;20020;-60
2023/07/09 08:34:06;;;;;;;4.10;2.58;;;;;;;;;;5090316;28;20028;-60
2023/07/09 08:36:32;;;;;;;3.30;2.42;;;;;;;;;;5092108;28;20077;-60
2023/07/09 08:39:00;;;;;;;3.25;2.22;;;;;;;;;;5092569;28;20019;-60
2023/07/09 08:41:36;;;;;;;3.83;2.67;;;;;;;;;;5091133;28;20032;-60
2023/07/09 08:44:06;;;;;;;5.30;2.70;;;;;;;;;;5092356;28;20074;-60
2023/07/09 08:46:38;;;;;;;2.92;2.00;;;;;;;;;;5091728;28;20036;-60
2023/07/09 08:49:10;;;;;;;3.75;2.50;;;;;;;;;;5092517;28;20036;-60
2023/07/09 08:51:39;;;;;;;3.83;2.35;;;;;;;;;;5091412;28;20073;-60
2023/07/09 08:54:07;;;;;;;5.72;3.35;;;;;;;;;;5092290;28;20024;-60
2023/07/09 08:56:34;;;;;;;4.05;2.85;;;;;;;;;;5091907;28;20460;-61
2023/07/09 08:59:02;;;;;;;5.72;3.00;;;;;;;;;;5092082;28;20044;-61
2023/07/09 09:01:34;;;;;;;3.88;2.65;;;;;;;;;;5090776;28;20186;-60
2023/07/09 09:04:15;;;;;;;4.68;3.03;;;;;;;;;;5092227;28;20024;-60
2023/07/09 09:06:45;;;;;;;3.50;2.65;;;;;;;;;;5091631;28;20026;-61
2023/07/09 09:09:49;;;;;;;4.47;3.15;;;;;;;;;;5090982;28;20016;-60
2023/07/09 09:12:18;;;;;;;3.20;2.65;;;;;;;;;;5028353;28;20033;-60
2023/07/09 09:14:47;;;;;;;4.65;2.55;;;;;;;;;;5029192;28;20064;-60
2023/07/09 09:17:18;;;;;;;2.92;2.17;;;;;;;;;;5060461;28;20394;-60
2023/07/09 09:19:48;;;;;;;3.38;2.78;;;;;;;;;;5091904;28;20020;-60
2023/07/09 09:22:18;;;;;;;4.50;2.90;;;;;;;;;;5090808;28;20035;-61
2023/07/09 09:24:55;;;;;;;3.80;2.50;;;;;;;;;;5091910;28;20039;-60
2023/07/09 09:27:21;;;;;;;3.50;2.58;;;;;;;;;;5091259;28;20028;-60
2023/07/09 09:29:47;;;;;;;3.53;2.42;;;;;;;;;;5092015;28;20020;-62
2023/07/09 09:32:21;;;;;;;4.13;2.40;;;;;;;;;;5089520;28;20370;-59
2023/07/09 09:34:47;;;;;;;4.18;3.13;;;;;;;;;;5091769;28;20059;-59
2023/07/09 09:37:12;;;;;;;3.33;2.22;;;;;;;;;;5091024;28;20047;-60
2023/07/09 09:39:39;;;;;;;7.80;2.72;;;;;;;;;;5091603;28;20481;-61
2023/07/09 09:42:10;;;;;;;3.25;2.10;;;;;;;;;;5090855;28;20028;-61
2023/07/09 09:44:36;;;;;;;4.70;2.60;;;;;;;;;;5091763;28;20063;-60
2023/07/09 09:47:02;;;;;;;3.50;2.65;;;;;;;;;;5091148;28;20051;-60
2023/07/09 09:49:28;;;;;;;3.13;2.17;;;;;;;;;;5091670;28;20069;-61
2023/07/09 09:51:56;;;;;;;3.67;2.15;;;;;;;;;;5090383;28;20032;-61
2023/07/09 09:54:25;;;;;;;5.15;2.97;;;;;;;;;;5091694;28;20020;-61
2023/07/09 09:56:53;;;;;;;5.20;3.05;;;;;;;;;;5091267;28;20043;-61
2023/07/09 09:59:21;;;;;;;5.18;1.90;;;;;;;;;;5091485;28;20024;-61
2023/07/09 10:01:47;;;;;;;6.65;2.72;;;;;;;;;;5090319;28;20031;-61
2023/07/09 10:04:18;;;;;;;6.20;2.47;;;;;;;;;;5091831;28;20028;-61
2023/07/09 10:06:52;;;;;;;3.65;2.38;;;;;;;;;;5091348;28;20081;-61
2023/07/09 10:09:31;;;;;;;8.25;2.72;;;;;;;;;;5091203;28;20032;-61
2023/07/09 10:12:12;;;;;;;3.42;1.88;;;;;;;;;;5090675;28;20028;-61
2023/07/09 10:14:43;;;;;;;6.70;2.25;;;;;;;;;;5091157;28;20051;-61
2023/07/09 10:17:09;;;;;;;3.10;2.25;;;;;;;;;;5090771;28;20041;-61
2023/07/09 10:19:35;;;;;;;3.58;2.95;;;;;;;;;;5092446;28;20489;-61
2023/07/09 10:22:03;;;;;;;5.00;2.45;;;;;;;;;;5094027;28;20039;-61
2023/07/09 10:24:49;;;;;;;2.72;1.83;;;;;;;;;;5095101;28;20016;-61
2023/07/09 10:27:34;;;;;;;8.07;4.05;;;;;;;;;;5094448;28;20089;-61
2023/07/09 10:30:16;;;;;;;3.55;2.40;;;;;;;;;;5095001;28;20032;-61
2023/07/09 10:32:45;;;;;;;2.92;2.17;;;;;;;;;;5092192;28;20020;-59
2023/07/09 10:35:19;;;;;;;3.22;1.77;;;;;;;;;;5094142;28;20035;-61
2023/07/09 10:38:04;;;;;;;2.70;1.75;;;;;;;;;;5094777;28;20020;-62
2023/07/09 10:40:32;;;;;;;5.07;2.30;;;;;;;;;;5093879;28;20028;-61
2023/07/09 10:43:00;;;;;;;4.40;1.98;;;;;;;;;;5094509;28;20028;-61
2023/07/09 10:45:31;;;;;;;3.42;2.05;;;;;;;;;;5094090;28;20024;-61
2023/07/09 10:48:03;;;;;;;4.00;2.00;;;;;;;;;;5094390;28;20020;-61
2023/07/09 10:50:30;;;;;;;3.10;1.85;;;;;;;;;;5093578;28;20057;-61
2023/07/09 10:53:00;;;;;;;3.67;2.10;;;;;;;;;;5094364;28;20107;-61
2023/07/09 10:55:33;;;;;;;4.43;2.28;;;;;;;;;;5094039;28;20028;-61
2023/07/09 10:58:01;;;;;;;3.28;2.65;;;;;;;;;;5094020;28;20122;-61
2023/07/09 11:00:34;;;;;;;3.53;2.13;;;;;;;;;;5093665;28;20035;-62
2023/07/09 11:03:02;;;;;;;3.08;2.20;;;;;;;;;;5094222;28;20118;-61
2023/07/09 11:05:28;;;;;;;4.03;2.38;;;;;;;;;;5093981;28;20059;-61
2023/07/09 11:08:03;;;;;;;3.53;1.98;;;;;;;;;;5094135;28;20366;-61
2023/07/09 11:10:29;;;;;;;3.03;1.70;;;;;;;;;;5092575;28;20028;-61
2023/07/09 11:13:01;;;;;;;3.53;2.28;;;;;;;;;;5093753;28;20359;-61
2023/07/09 11:15:38;;;;;;;6.53;2.97;;;;;;;;;;5093730;28;20035;-61
2023/07/09 11:18:10;;;;;;;3.45;2.08;;;;;;;;;;5093918;28;20472;-61
2023/07/09 11:20:42;;;;;;;2.97;2.22;;;;;;;;;;5093277;28;20028;-61
2023/07/09 11:23:17;;;;;;;4.70;2.13;;;;;;;;;;5093659;28;20389;-61
2023/07/09 11:25:45;;;;;;;3.30;2.17;;;;;;;;;;5093798;28;20077;-61
2023/07/09 11:28:11;;;;;;;4.60;2.63;;;;;;;;;;5093817;28;20020;-61
2023/07/09 11:30:51;;;;;;;5.43;2.38;;;;;;;;;;5092242;28;20077;-61
2023/07/09 11:33:18;;;;;;;3.30;2.20;;;;;;;;;;5091803;28;20027;-61
2023/07/09 11:35:44;;;;;;;4.35;2.28;;;;;;;;;;5093286;28;20051;-61
2023/07/09 11:38:17;;;;;;;3.90;2.75;;;;;;;;;;5093581;28;20012;-61
2023/07/09 11:40:47;;;;;;;4.32;2.22;;;;;;;;;;5092806;28;20402;-61
2023/07/09 11:43:26;;;;;;;5.30;2.97;;;;;;;;;;5093312;28;20108;-61
2023/07/09 11:45:52;;;;;;;4.53;2.90;;;;;;;;;;5093094;28;20028;-60
2023/07/09 11:48:26;;;;;;;5.85;2.83;;;;;;;;;;5093444;28;20028;-60
2023/07/09 11:50:53;;;;;;;5.35;2.35;;;;;;;;;;5092259;28;20024;-61
2023/07/09 11:53:21;;;;;;;3.47;2.20;;;;;;;;;;5093064;28;20020;-61
2023/07/09 11:55:47;;;;;;;5.82;2.50;;;;;;;;;;5092941;28;20028;-60
2023/07/09 11:58:17;;;;;;;6.57;2.53;;;;;;;;;;5092969;28;20355;-60
2023/07/09 12:00:55;;;;;;;4.22;2.78;;;;;;;;;;5092314;28;20012;-61
2023/07/09 12:03:41;;;;;;;4.18;2.60;;;;;;;;;;5093042;28;20035;-60
2023/07/09 12:06:24;;;;;;;4.28;2.50;;;;;;;;;;5092408;28;20473;-60
2023/07/09 12:08:51;;;;;;;4.45;2.83;;;;;;;;;;5092434;28;20255;-60
2023/07/09 12:11:27;;;;;;;5.15;2.47;;;;;;;;;;5090785;28;20108;-60
2023/07/09 12:13:54;;;;;;;4.25;2.83;;;;;;;;;;5093019;28;20123;-60
2023/07/09 12:16:23;;;;;;;5.18;3.10;;;;;;;;;;5092790;28;20031;-60
2023/07/09 12:18:49;;;;;;;6.20;3.60;;;;;;;;;;5092714;28;20069;-61
2023/07/09 12:21:15;;;;;;;3.78;2.63;;;;;;;;;;5091336;28;20612;-60
2023/07/09 12:23:41;;;;;;;4.90;2.50;;;;;;;;;;5092548;28;20028;-61
2023/07/09 12:26:13;;;;;;;5.20;2.70;;;;;;;;;;5092439;28;20373;-60
2023/07/09 12:28:39;;;;;;;5.43;2.35;;;;;;;;;;5092542;28;20502;-60
2023/07/09 12:31:05;;;;;;;3.97;2.83;;;;;;;;;;5090553;28;20103;-61
2023/07/09 12:33:31;;;;;;;3.35;2.63;;;;;;;;;;5091891;28;20119;-60
2023/07/09 12:35:58;;;;;;;3.08;2.53;;;;;;;;;;5092036;28;20111;-61
2023/07/09 12:38:25;;;;;;;3.92;2.38;;;;;;;;;;5092456;28;20038;-60
2023/07/09 12:40:52;;;;;;;3.50;2.55;;;;;;;;;;5091453;28;20020;-60
2023/07/09 12:43:22;;;;;;;5.70;2.90;;;;;;;;;;5092205;28;20028;-60
2023/07/09 12:45:47;;;;;;;;;;;;;;;;;;5092267;28;20104;-60
2023/07/09 12:48:14;;;;;;;8.05;3.42;;;;;;;;;;5092535;28;20525;-60
2023/07/09 12:50:40;;;;;;;4.70;2.20;;;;;;;;;;5091125;28;20016;-60
2023/07/09 12:53:14;;;;;;;4.35;2.38;;;;;;;;;;5092136;28;20031;-60
2023/07/09 12:55:41;;;;;;;5.15;2.78;;;;;;;;;;5091949;28;20381;-60
2023/07/09 12:58:11;;;;;;;3.17;2.30;;;;;;;;;;5091993;28;20381;-60
2023/07/09 13:00:37;;;;;;;3.38;2.58;;;;;;;;;;5091360;28;20024;-60
2023/07/09 13:03:03;;;;;;;3.25;2.30;;;;;;;;;;5092350;28;20027;-60
2023/07/09 13:05:29;;;;;;;4.80;3.25;;;;;;;;;;5091850;28;20028;-60
2023/07/09 13:08:00;;;;;;;6.55;3.20;;;;;;;;;;5092411;28;20418;-60
2023/07/09 13:10:28;;;;;;;4.03;2.78;;;;;;;;;;5090497;28;20366;-61
2023/07/09 13:12:56;;;;;;;6.03;2.63;;;;;;;;;;5092089;28;20490;-60
2023/07/09 13:15:26;;;;;;;5.35;2.33;;;;;;;;;;5091693;28;20035;-60
2023/07/09 13:17:51;;;;;;;;;;;;;;;;;;5092418;28;20016;-61
2023/07/09 13:20:17;;;;;;;2.90;1.92;;;;;;;;;;5090784;28;19966;-61
2023/07/09 13:22:45;;;;;;;4.28;2.50;;;;;;;;;;5091898;28;20022;-60
2023/07/09 13:25:11;;;;;;;3.33;2.50;;;;;;;;;;5091359;28;20500;-60
2023/07/09 13:27:40;;;;;;;4.28;2.17;;;;;;;;;;5091597;28;20027;-60
2023/07/09 13:30:06;;;;;;;4.37;2.40;;;;;;;;;;5091472;28;20638;-61
2023/07/09 13:32:32;;;;;;;3.80;1.92;;;;;;;;;;5087759;28;20024;-60
2023/07/09 13:34:58;;;;;;;3.47;2.53;;;;;;;;;;5091574;28;20028;-61
2023/07/09 13:37:24;;;;;;;6.10;2.70;;;;;;;;;;5091113;28;20040;-61
2023/07/09 13:39:50;;;;;;;3.95;2.15;;;;;;;;;;5091681;28;20028;-60
2023/07/09 13:42:17;;;;;;;4.75;3.17;;;;;;;;;;5090675;28;20444;-60
2023/07/09 13:44:45;;;;;;;3.33;2.20;;;;;;;;;;5091669;28;20115;-60
2023/07/09 13:47:16;;;;;;;5.25;2.50;;;;;;;;;;5091181;28;20023;-61
2023/07/09 13:49:41;;;;;;;3.45;2.42;;;;;;;;;;5091374;28;20086;-60
2023/07/09 13:52:14;;;;;;;3.38;2.47;;;;;;;;;;5090365;28;20024;-61
2023/07/09 13:54:40;;;;;;;3.72;2.03;;;;;;;;;;5092982;28;20024;-60
2023/07/09 13:57:07;;;;;;;4.13;2.78;;;;;;;;;;5095141;28;20028;-61
2023/07/09 13:59:33;;;;;;;5.57;3.00;;;;;;;;;;5095130;28;20016;-61
2023/07/09 14:01:59;;;;;;;4.68;2.50;;;;;;;;;;5094238;28;20031;-61
2023/07/09 14:04:26;;;;;;;6.13;2.95;;;;;;;;;;5094828;28;20358;-61
2023/07/09 14:06:52;;;;;;;3.50;2.00;;;;;;;;;;5095113;28;20028;-61
2023/07/09 14:09:18;;;;;;;4.13;2.53;;;;;;;;;;5094585;28;20588;-61
2023/07/09 14:11:45;;;;;;;3.65;2.65;;;;;;;;;;5093995;28;20035;-61
2023/07/09 14:14:24;;;;;;;3.97;2.88;;;;;;;;;;5094868;28;20032;-61
2023/07/09 14:16:51;;;;;;;3.83;2.17;;;;;;;;;;5094592;28;20150;-61
2023/07/09 14:19:19;;;;;;;3.47;2.45;;;;;;;;;;5094934;28;20043;-61
2023/07/09 14:21:45;;;;;;;3.22;2.22;;;;;;;;;;5094273;28;20029;-61
2023/07/09 14:24:20;;;;;;;2.70;2.08;;;;;;;;;;5093414;28;20050;-61
2023/07/09 14:26:47;;;;;;;3.83;1.85;;;;;;;;;;5094616;28;20048;-61
2023/07/09 14:29:14;;;;;;;4.90;2.35;;;;;;;;;;5095245;28;20326;-61
2023/07/09 14:31:40;;;;;;;3.53;2.42;;;;;;;;;;5090899;28;20028;-61
2023/07/09 14:34:12;;;;;;;4.15;2.78;;;;;;;;;;5094806;28;20028;-61
2023/07/09 14:36:38;;;;;;;3.50;2.40;;;;;;;;;;5094415;28;20047;-61
2023/07/09 14:39:08;;;;;;;4.05;2.67;;;;;;;;;;5094703;28;20416;-61
2023/07/09 14:41:34;;;;;;;2.97;2.45;;;;;;;;;;5093754;28;20382;-61
2023/07/09 14:44:00;;;;;;;4.47;2.42;;;;;;;;;;5094814;28;20114;-61
2023/07/09 14:46:26;;;;;;;7.63;2.53;;;;;;;;;;5093998;28;20052;-61
2023/07/09 14:48:52;;;;;;;3.03;2.30;;;;;;;;;;5094452;28;20024;-61